createdAt,value
2018-09-18T00:00:34.409Z,17.40
2018-09-18T00:03:09.319Z,17.60
2018-09-18T00:05:43.317Z,17.60
2018-09-18T00:08:17.434Z,17.60
2018-09-18T00:10:51.460Z,17.60
2018-09-18T00:13:25.521Z,17.50
2018-09-18T00:15:59.632Z,17.40
2018-09-18T00:18:33.698Z,17.40
2018-09-18T00:21:07.824Z,17.40
2018-09-18T00:23:41.913Z,17.40
2018-09-18T00:26:16.031Z,17.40
2018-09-18T00:28:50.550Z,17.40
2018-09-18T00:31:24.741Z,17.40
2018-09-18T00:33:58.818Z,17.30
2018-09-18T00:36:32.896Z,17.30
2018-09-18T00:39:07.022Z,17.30
2018-09-18T00:41:41.954Z,17.30
2018-09-18T00:44:16.082Z,17.30
2018-09-18T00:46:50.168Z,17.20
2018-09-18T00:49:24.773Z,17.20
2018-09-18T00:51:58.792Z,17.20
2018-09-18T00:54:33.053Z,17.20
2018-09-18T00:57:07.264Z,17.20
2018-09-18T00:59:41.977Z,17.10
2018-09-18T01:02:16.486Z,17.10
2018-09-18T01:04:50.589Z,16.90
2018-09-18T01:07:24.642Z,16.90
2018-09-18T01:09:58.945Z,16.60
2018-09-18T01:12:33.080Z,16.80
2018-09-18T01:15:08.253Z,16.70
2018-09-18T01:17:42.353Z,16.70
2018-09-18T01:20:16.629Z,16.40
2018-09-18T01:22:50.752Z,16.60
2018-09-18T01:26:01.862Z,16.80
2018-09-18T01:28:35.929Z,16.70
2018-09-18T01:31:09.834Z,16.50
2018-09-18T01:33:44.749Z,16.60
2018-09-18T01:36:20.029Z,16.60
2018-09-18T01:38:55.378Z,16.50
2018-09-18T01:41:29.522Z,16.50
2018-09-18T01:44:06.483Z,16.50
2018-09-18T01:46:41.409Z,16.50
2018-09-18T01:49:15.585Z,16.50
2018-09-18T01:51:49.933Z,16.50
2018-09-18T01:54:24.314Z,16.50
2018-09-18T01:56:58.537Z,16.40
2018-09-18T01:59:32.889Z,16.30
2018-09-18T02:02:07.088Z,16.40
2018-09-18T02:04:41.472Z,16.30
2018-09-18T02:07:15.509Z,16.20
2018-09-18T02:09:49.579Z,16.20
2018-09-18T02:12:23.523Z,16.20
2018-09-18T02:14:57.738Z,16.20
2018-09-18T02:17:31.798Z,16.30
2018-09-18T02:20:06.270Z,16.30
2018-09-18T02:22:40.498Z,16.20
2018-09-18T02:25:15.403Z,16.20
2018-09-18T02:27:49.589Z,16.20
2018-09-18T02:30:24.408Z,16.10
2018-09-18T02:32:58.784Z,16.10
2018-09-18T02:35:33.080Z,16.00
2018-09-18T02:38:07.128Z,16.00
2018-09-18T02:40:41.050Z,15.90
2018-09-18T02:43:15.365Z,15.90
2018-09-18T02:45:50.165Z,15.80
2018-09-18T02:48:25.010Z,15.90
2018-09-18T02:51:00.111Z,15.80
2018-09-18T02:53:33.941Z,15.70
2018-09-18T02:56:07.896Z,15.30
2018-09-18T02:58:42.737Z,15.20
2018-09-18T03:01:16.650Z,15.20
2018-09-18T03:03:51.489Z,15.10
2018-09-18T03:06:26.096Z,15.20
2018-09-18T03:09:00.847Z,15.10
2018-09-18T03:11:35.563Z,15.20
2018-09-18T03:14:09.514Z,15.20
2018-09-18T03:16:43.498Z,15.40
2018-09-18T03:19:17.553Z,15.10
2018-09-18T03:21:51.710Z,15.20
2018-09-18T03:24:25.818Z,15.30
2018-09-18T03:26:59.865Z,15.30
2018-09-18T03:29:33.895Z,15.30
2018-09-18T03:32:07.975Z,15.30
2018-09-18T03:34:42.697Z,15.40
2018-09-18T03:37:16.812Z,15.40
2018-09-18T03:39:50.908Z,15.40
2018-09-18T03:42:24.989Z,15.20
2018-09-18T03:44:59.035Z,15.10
2018-09-18T03:47:33.035Z,15.10
2018-09-18T03:50:07.783Z,15.10
2018-09-18T03:52:42.556Z,15.10
2018-09-18T03:55:16.620Z,15.10
2018-09-18T03:57:50.674Z,14.80
2018-09-18T04:00:24.729Z,14.80
2018-09-18T04:02:58.942Z,14.90
2018-09-18T04:05:32.956Z,15.00
2018-09-18T04:08:07.850Z,15.10
2018-09-18T04:10:41.941Z,15.10
2018-09-18T04:13:15.895Z,15.10
2018-09-18T04:15:50.657Z,15.00
2018-09-18T04:18:24.612Z,15.00
2018-09-18T04:20:58.651Z,15.10
2018-09-18T04:23:32.689Z,15.00
2018-09-18T04:26:06.745Z,14.70
2018-09-18T04:28:40.817Z,14.50
2018-09-18T04:31:14.923Z,14.70
2018-09-18T04:33:48.932Z,14.80
2018-09-18T04:36:23.008Z,14.60
2018-09-18T04:38:56.989Z,14.70
2018-09-18T04:41:30.951Z,14.60
2018-09-18T04:44:04.986Z,14.50
2018-09-18T04:46:39.101Z,14.10
2018-09-18T04:49:12.997Z,14.20
2018-09-18T04:51:47.026Z,14.40
2018-09-18T04:54:22.755Z,14.50
2018-09-18T04:56:56.661Z,14.60
2018-09-18T04:59:30.669Z,14.60
2018-09-18T05:02:05.541Z,14.60
2018-09-18T05:04:40.243Z,14.60
2018-09-18T05:07:15.131Z,14.60
2018-09-18T05:09:49.209Z,14.50
2018-09-18T05:12:23.326Z,14.60
2018-09-18T05:14:57.415Z,14.60
2018-09-18T05:17:31.475Z,14.60
2018-09-18T05:20:05.317Z,14.60
2018-09-18T05:22:39.329Z,14.60
2018-09-18T05:25:13.369Z,14.70
2018-09-18T05:27:47.462Z,14.70
2018-09-18T05:30:21.508Z,14.60
2018-09-18T05:32:55.596Z,14.60
2018-09-18T05:35:29.712Z,14.70
2018-09-18T05:38:03.749Z,14.80
2018-09-18T05:40:37.768Z,14.90
2018-09-18T05:43:11.849Z,14.80
2018-09-18T05:45:45.836Z,14.60
2018-09-18T05:48:19.962Z,14.20
2018-09-18T05:50:54.110Z,14.60
2018-09-18T05:53:28.013Z,14.50
2018-09-18T05:56:02.130Z,14.20
2018-09-18T05:58:36.238Z,14.40
2018-09-18T06:01:10.339Z,14.70
2018-09-18T06:03:45.170Z,14.80
2018-09-18T06:06:19.149Z,14.80
2018-09-18T06:08:53.073Z,14.90
2018-09-18T06:11:27.114Z,15.10
2018-09-18T06:14:01.202Z,15.00
2018-09-18T06:16:36.029Z,15.10
2018-09-18T06:19:10.715Z,15.00
2018-09-18T06:21:45.391Z,15.10
2018-09-18T06:24:19.328Z,15.00
2018-09-18T06:26:53.291Z,15.00
2018-09-18T06:29:27.294Z,14.90
2018-09-18T06:32:01.158Z,14.70
2018-09-18T06:34:35.152Z,14.80
2018-09-18T06:37:09.090Z,15.00
2018-09-18T06:39:43.102Z,15.10
2018-09-18T06:42:17.214Z,15.30
2018-09-18T06:44:51.173Z,15.10
2018-09-18T06:47:26.015Z,15.40
2018-09-18T06:49:59.917Z,15.40
2018-09-18T06:52:34.764Z,15.40
2018-09-18T06:55:08.650Z,15.40
2018-09-18T06:57:42.680Z,15.50
2018-09-18T07:00:16.714Z,15.50
2018-09-18T07:02:50.769Z,15.60
2018-09-18T07:05:24.888Z,15.60
2018-09-18T07:07:59.032Z,15.70
2018-09-18T07:10:33.218Z,15.80
2018-09-18T07:13:07.336Z,15.80
2018-09-18T07:15:41.385Z,16.00
2018-09-18T07:18:15.510Z,16.10
2018-09-18T07:20:49.483Z,16.10
2018-09-18T07:23:23.458Z,16.20
2018-09-18T07:25:57.438Z,16.20
2018-09-18T07:28:32.303Z,16.50
2018-09-18T07:31:06.403Z,16.50
2018-09-18T07:33:40.554Z,16.60
2018-09-18T07:36:14.719Z,16.60
2018-09-18T07:38:49.529Z,16.90
2018-09-18T07:41:23.732Z,16.80
2018-09-18T07:43:57.999Z,16.90
2018-09-18T07:46:32.202Z,17.00
2018-09-18T07:49:06.706Z,17.10
2018-09-18T07:51:41.669Z,17.40
2018-09-18T07:54:16.018Z,17.40
2018-09-18T07:56:50.953Z,17.60
2018-09-18T07:59:25.738Z,17.80
2018-09-18T08:02:00.213Z,17.80
2018-09-18T08:04:35.343Z,18.00
2018-09-18T08:07:09.670Z,18.00
2018-09-18T08:09:43.978Z,18.20
2018-09-18T08:12:18.027Z,18.40
2018-09-18T08:14:52.921Z,18.70
2018-09-18T08:17:27.674Z,18.60
2018-09-18T08:20:02.585Z,18.90
2018-09-18T08:22:37.827Z,19.00
2018-09-18T08:25:11.956Z,19.00
2018-09-18T08:27:47.405Z,19.10
2018-09-18T08:30:21.350Z,19.20
2018-09-18T08:32:55.736Z,19.50
2018-09-18T08:35:30.784Z,19.90
2018-09-18T08:38:05.533Z,19.90
2018-09-18T08:40:39.639Z,19.90
2018-09-18T08:43:13.717Z,20.00
2018-09-18T08:45:48.084Z,20.00
2018-09-18T08:48:22.105Z,20.10
2018-09-18T08:50:56.926Z,20.30
2018-09-18T08:53:31.208Z,20.50
2018-09-18T08:56:05.650Z,20.60
2018-09-18T08:58:40.923Z,20.80
2018-09-18T09:01:15.113Z,21.10
2018-09-18T09:03:51.119Z,21.30
2018-09-18T09:06:26.117Z,21.50
2018-09-18T09:09:00.421Z,21.50
2018-09-18T09:11:35.245Z,21.70
2018-09-18T09:14:09.462Z,21.80
2018-09-18T09:16:43.585Z,21.90
2018-09-18T09:19:17.918Z,21.90
2018-09-18T09:21:52.439Z,22.10
2018-09-18T09:24:27.412Z,22.20
2018-09-18T09:27:02.533Z,22.10
2018-09-18T09:29:36.842Z,22.10
2018-09-18T09:32:10.830Z,22.20
2018-09-18T09:34:45.132Z,22.40
2018-09-18T09:37:19.744Z,22.40
2018-09-18T09:39:53.941Z,22.50
2018-09-18T09:42:28.734Z,22.90
2018-09-18T09:45:02.860Z,22.90
2018-09-18T09:47:37.111Z,23.00
2018-09-18T09:50:11.234Z,23.00
2018-09-18T09:52:45.957Z,23.30
2018-09-18T09:55:19.940Z,23.50
2018-09-18T09:57:53.905Z,23.30
2018-09-18T10:00:28.443Z,23.60
2018-09-18T10:03:02.651Z,23.60
2018-09-18T10:05:37.649Z,23.60
2018-09-18T10:08:11.797Z,23.60
2018-09-18T10:10:46.093Z,23.40
2018-09-18T10:13:20.843Z,23.80
2018-09-18T10:15:55.179Z,23.80
2018-09-18T10:18:29.331Z,23.90
2018-09-18T10:21:03.305Z,23.90
2018-09-18T10:23:38.112Z,24.30
2018-09-18T10:26:12.397Z,24.30
2018-09-18T10:28:46.344Z,24.30
2018-09-18T10:31:20.452Z,24.50
2018-09-18T10:33:55.484Z,24.50
2018-09-18T10:36:29.956Z,24.50
2018-09-18T10:39:04.566Z,24.70
2018-09-18T10:41:41.184Z,24.80
2018-09-18T10:44:15.601Z,24.70
2018-09-18T10:46:50.448Z,25.10
2018-09-18T10:49:24.803Z,25.10
2018-09-18T10:51:58.728Z,25.50
2018-09-18T10:54:32.989Z,25.50
2018-09-18T10:57:06.951Z,25.40
2018-09-18T10:59:41.892Z,25.60
2018-09-18T11:02:16.800Z,25.70
2018-09-18T11:04:51.194Z,25.70
2018-09-18T11:07:26.061Z,25.90
2018-09-18T11:10:01.104Z,25.90
2018-09-18T11:12:35.311Z,25.80
2018-09-18T11:15:09.339Z,26.10
2018-09-18T11:17:43.447Z,26.10
2018-09-18T11:20:17.828Z,26.40
2018-09-18T11:22:52.138Z,26.40
2018-09-18T11:25:26.217Z,26.40
2018-09-18T11:28:01.375Z,26.40
2018-09-18T11:30:35.695Z,26.40
2018-09-18T11:33:10.586Z,26.50
2018-09-18T11:35:45.053Z,26.50
2018-09-18T11:38:20.168Z,26.70
2018-09-18T11:40:54.089Z,26.60
2018-09-18T11:43:28.005Z,26.70
2018-09-18T11:46:02.380Z,26.60
2018-09-18T11:48:36.638Z,27.10
2018-09-18T11:51:10.635Z,27.00
2018-09-18T11:53:45.075Z,27.20
2018-09-18T11:56:19.675Z,27.30
2018-09-18T11:58:53.725Z,27.30
2018-09-18T12:01:28.058Z,27.50
2018-09-18T12:04:02.096Z,27.50
2018-09-18T12:06:36.151Z,27.60
2018-09-18T12:09:10.260Z,27.70
2018-09-18T12:11:44.333Z,27.60
2018-09-18T12:14:18.370Z,27.60
2018-09-18T12:16:52.508Z,27.80
2018-09-18T12:19:26.596Z,28.20
2018-09-18T12:22:00.533Z,28.30
2018-09-18T12:24:36.075Z,28.20
2018-09-18T12:27:10.158Z,28.40
2018-09-18T12:29:44.434Z,28.50
2018-09-18T12:32:19.373Z,28.60
2018-09-18T12:34:56.734Z,28.60
2018-09-18T12:37:31.629Z,28.80
2018-09-18T12:40:05.782Z,28.80
2018-09-18T12:42:39.884Z,28.60
2018-09-18T12:45:13.869Z,28.60
2018-09-18T12:47:48.061Z,28.60
2018-09-18T12:50:22.221Z,28.40
2018-09-18T12:52:56.286Z,28.70
2018-09-18T12:55:30.270Z,28.70
2018-09-18T12:58:05.243Z,28.80
2018-09-18T13:00:39.355Z,28.70
2018-09-18T13:03:14.172Z,29.10
2018-09-18T13:05:48.352Z,29.00
2018-09-18T13:08:27.028Z,29.10
2018-09-18T13:11:01.089Z,29.20
2018-09-18T13:13:35.343Z,29.50
2018-09-18T13:16:10.284Z,29.10
2018-09-18T13:18:44.264Z,29.00
2018-09-18T13:21:18.260Z,29.20
2018-09-18T13:23:52.274Z,29.30
2018-09-18T13:26:26.365Z,29.40
2018-09-18T13:29:00.482Z,29.30
2018-09-18T13:31:34.498Z,29.40
2018-09-18T13:34:09.734Z,29.60
2018-09-18T13:36:43.848Z,29.50
2018-09-18T13:39:17.958Z,29.60
2018-09-18T13:41:51.864Z,29.90
2018-09-18T13:44:25.882Z,30.10
2018-09-18T13:47:08.567Z,29.80
2018-09-18T13:49:42.828Z,29.70
2018-09-18T13:52:17.659Z,29.80
2018-09-18T13:54:55.274Z,29.80
2018-09-18T13:57:29.541Z,30.10
2018-09-18T14:00:03.578Z,30.00
2018-09-18T14:02:37.608Z,30.30
2018-09-18T14:05:12.531Z,30.40
2018-09-18T14:07:46.417Z,30.40
2018-09-18T14:10:20.536Z,30.30
2018-09-18T14:12:57.137Z,30.50
2018-09-18T14:15:31.143Z,30.40
2018-09-18T14:18:05.152Z,30.30
2018-09-18T14:20:39.214Z,30.10
2018-09-18T14:23:13.278Z,30.10
2018-09-18T14:25:47.489Z,30.00
2018-09-18T14:28:22.308Z,30.20
2018-09-18T14:30:56.205Z,30.20
2018-09-18T14:33:30.646Z,30.50
2018-09-18T14:36:04.909Z,30.90
2018-09-18T14:38:39.001Z,31.20
2018-09-18T14:41:13.017Z,31.00
2018-09-18T14:43:47.099Z,31.00
2018-09-18T14:46:21.042Z,31.00
2018-09-18T14:48:55.141Z,31.40
2018-09-18T14:51:29.739Z,31.50
2018-09-18T14:54:03.600Z,30.90
2018-09-18T14:56:37.793Z,30.60
2018-09-18T14:59:11.880Z,30.60
2018-09-18T15:01:46.701Z,30.40
2018-09-18T15:04:20.741Z,30.50
2018-09-18T15:06:54.708Z,30.20
2018-09-18T15:09:28.745Z,30.20
2018-09-18T15:12:02.960Z,30.50
2018-09-18T15:14:37.011Z,30.70
2018-09-18T15:17:27.677Z,30.70
2018-09-18T15:20:01.851Z,30.70
2018-09-18T15:22:36.177Z,30.50
2018-09-18T15:25:10.375Z,30.70
2018-09-18T15:27:45.358Z,30.60
2018-09-18T15:30:19.265Z,30.50
2018-09-18T15:32:53.518Z,30.60
2018-09-18T15:35:27.818Z,30.80
2018-09-18T15:38:01.797Z,30.90
2018-09-18T15:40:36.102Z,30.70
2018-09-18T15:43:11.258Z,30.50
2018-09-18T15:45:45.364Z,30.50
2018-09-18T15:48:19.458Z,30.20
2018-09-18T15:50:53.543Z,30.30
2018-09-18T15:53:27.654Z,30.80
2018-09-18T15:56:01.583Z,31.00
2018-09-18T15:58:35.739Z,31.50
2018-09-18T16:01:09.902Z,31.90
2018-09-18T16:03:44.796Z,33.30
2018-09-18T16:06:18.902Z,33.20
2018-09-18T16:08:52.965Z,33.40
2018-09-18T16:11:26.926Z,32.90
2018-09-18T16:14:01.043Z,33.80
2018-09-18T16:16:37.077Z,34.10
2018-09-18T16:19:11.080Z,33.90
2018-09-18T16:21:45.073Z,34.40
2018-09-18T16:24:19.090Z,33.60
2018-09-18T16:26:53.263Z,33.20
2018-09-18T16:29:27.402Z,33.10
2018-09-18T16:32:01.467Z,33.50
2018-09-18T16:34:35.689Z,34.00
2018-09-18T16:37:11.579Z,33.90
2018-09-18T16:39:45.955Z,33.90
2018-09-18T16:42:20.685Z,33.70
2018-09-18T16:44:54.720Z,33.70
2018-09-18T16:47:30.567Z,32.70
2018-09-18T16:50:04.714Z,32.70
2018-09-18T16:52:39.973Z,31.60
2018-09-18T16:55:16.668Z,31.50
2018-09-18T16:57:50.694Z,30.80
2018-09-18T17:00:25.070Z,30.40
2018-09-18T17:03:00.091Z,29.60
2018-09-18T17:05:34.252Z,29.60
2018-09-18T17:08:08.417Z,29.30
2018-09-18T17:10:43.239Z,29.00
2018-09-18T17:13:17.205Z,29.00
2018-09-18T17:15:51.358Z,28.90
2018-09-18T17:18:25.485Z,28.70
2018-09-18T17:20:59.600Z,28.60
2018-09-18T17:23:33.559Z,28.40
2018-09-18T17:26:07.821Z,28.40
2018-09-18T17:28:42.191Z,28.30
2018-09-18T17:31:16.073Z,28.30
2018-09-18T17:33:49.963Z,28.20
2018-09-18T17:36:24.936Z,27.90
2018-09-18T17:38:59.784Z,27.90
2018-09-18T17:41:34.001Z,27.90
2018-09-18T17:44:08.723Z,27.70
2018-09-18T17:46:42.641Z,27.70
2018-09-18T17:49:16.849Z,27.60
2018-09-18T17:51:50.965Z,27.50
2018-09-18T17:54:25.069Z,27.50
2018-09-18T17:56:59.119Z,27.40
2018-09-18T17:59:33.220Z,27.40
2018-09-18T18:02:07.288Z,27.30
2018-09-18T18:04:41.200Z,27.20
2018-09-18T18:07:15.334Z,27.10
2018-09-18T18:09:49.455Z,27.00
2018-09-18T18:12:25.190Z,27.00
2018-09-18T18:14:59.198Z,26.80
2018-09-18T18:17:33.392Z,26.70
2018-09-18T18:20:08.180Z,26.70
2018-09-18T18:22:42.076Z,26.70
2018-09-18T18:25:15.958Z,26.50
2018-09-18T18:27:50.715Z,26.30
2018-09-18T18:30:24.840Z,26.30
2018-09-18T18:32:58.795Z,26.30
2018-09-18T18:35:32.834Z,26.20
2018-09-18T18:38:06.890Z,26.20
2018-09-18T18:40:40.978Z,26.30
2018-09-18T18:43:15.064Z,26.20
2018-09-18T18:45:50.028Z,26.30
2018-09-18T18:48:24.279Z,26.30
2018-09-18T18:51:03.174Z,26.30
2018-09-18T18:53:48.031Z,26.00
2018-09-18T18:56:22.138Z,25.70
2018-09-18T18:58:56.214Z,25.90
2018-09-18T19:05:05.823Z,25.60
2018-09-18T19:07:49.412Z,25.60
2018-09-18T19:10:29.855Z,25.90
2018-09-18T19:17:21.120Z,25.60
2018-09-18T19:37:12.341Z,25.80
2018-09-18T19:43:14.033Z,25.60
2018-09-18T19:45:49.296Z,25.10
2018-09-18T19:48:23.478Z,25.10
2018-09-18T19:50:57.695Z,25.00
2018-09-18T19:53:33.155Z,24.90
2018-09-18T19:56:07.859Z,24.80
2018-09-18T19:58:41.960Z,24.80
2018-09-18T20:01:16.078Z,25.00
2018-09-18T20:03:50.201Z,24.80
2018-09-18T20:06:24.296Z,24.90
2018-09-18T20:08:58.558Z,24.90
2018-09-18T20:11:32.630Z,24.90
2018-09-18T20:14:06.778Z,24.80
2018-09-18T20:16:40.978Z,24.70
2018-09-18T20:19:21.912Z,24.60
2018-09-18T20:21:57.048Z,24.00
2018-09-18T20:24:31.921Z,24.00
2018-09-18T20:27:07.342Z,23.90
2018-09-18T20:29:41.285Z,24.00
2018-09-18T20:32:15.361Z,23.90
2018-09-18T20:34:49.759Z,24.10
2018-09-18T20:37:24.678Z,23.90
2018-09-18T20:39:58.576Z,23.90
2018-09-18T20:42:32.520Z,24.00
2018-09-18T20:45:06.608Z,24.00
2018-09-18T20:47:41.175Z,23.70
2018-09-18T20:50:16.009Z,24.10
2018-09-18T20:52:50.552Z,24.10
2018-09-18T20:55:24.522Z,23.80
2018-09-18T20:57:58.684Z,23.60
2018-09-18T21:00:32.744Z,23.70
2018-09-18T21:03:06.848Z,23.50
2018-09-18T21:05:40.913Z,23.40
2018-09-18T21:08:14.845Z,23.40
2018-09-18T21:10:48.841Z,23.40
2018-09-18T21:13:23.651Z,23.60
2018-09-18T21:15:57.723Z,23.60
2018-09-18T21:18:31.731Z,23.60
2018-09-18T21:21:05.814Z,23.70
2018-09-18T21:23:39.771Z,23.70
2018-09-18T21:26:14.626Z,23.30
2018-09-18T21:28:48.543Z,23.20
2018-09-18T21:31:22.654Z,23.40
2018-09-18T21:33:56.654Z,23.30
2018-09-18T21:36:30.705Z,23.10
2018-09-18T21:39:04.911Z,23.00
2018-09-18T21:41:39.788Z,23.10
2018-09-18T21:44:13.915Z,23.30
2018-09-18T21:46:48.086Z,23.20
2018-09-18T21:49:22.187Z,23.40
2018-09-18T21:51:56.272Z,23.40
2018-09-18T21:54:30.378Z,23.10
2018-09-18T21:57:04.486Z,23.00
2018-09-18T21:59:38.431Z,22.80
2018-09-18T22:02:12.497Z,22.70
2018-09-18T22:05:08.011Z,22.70
2018-09-18T22:07:42.033Z,22.90
2018-09-18T22:10:16.155Z,22.80
2018-09-18T22:12:50.258Z,22.80
2018-09-18T22:15:24.363Z,22.80
2018-09-18T22:17:58.436Z,22.80
2018-09-18T22:20:32.527Z,22.80
2018-09-18T22:23:06.614Z,22.90
2018-09-18T22:25:40.725Z,23.00
2018-09-18T22:28:14.658Z,22.90
2018-09-18T22:30:48.637Z,22.80
2018-09-18T22:33:22.654Z,22.90
2018-09-18T22:35:56.790Z,22.80
2018-09-18T22:38:31.623Z,22.70
2018-09-18T22:41:05.742Z,22.70
2018-09-18T22:43:39.850Z,22.80
2018-09-18T22:46:14.688Z,22.80
2018-09-18T22:48:48.767Z,22.80
2018-09-18T22:51:22.885Z,22.80
2018-09-18T22:53:57.010Z,22.80
2018-09-18T22:56:31.126Z,22.50
2018-09-18T22:59:05.142Z,22.30
2018-09-18T23:01:39.120Z,22.30
2018-09-18T23:04:13.242Z,22.40
2018-09-18T23:06:47.270Z,22.40
2018-09-18T23:09:21.419Z,22.30
2018-09-18T23:11:55.368Z,22.40
2018-09-18T23:14:29.307Z,22.30
2018-09-18T23:17:03.372Z,22.40
2018-09-18T23:19:37.491Z,22.50
2018-09-18T23:22:12.313Z,22.50
2018-09-18T23:24:46.221Z,22.60
2018-09-18T23:27:20.292Z,22.40
2018-09-18T23:29:54.345Z,22.10
2018-09-18T23:32:28.493Z,22.20
2018-09-18T23:35:02.577Z,21.70
2018-09-18T23:37:37.406Z,21.40
2018-09-18T23:40:11.314Z,21.40
2018-09-18T23:42:45.426Z,21.40
2018-09-18T23:45:20.277Z,21.30
2018-09-18T23:47:54.897Z,21.40
2018-09-18T23:50:28.855Z,21.40
2018-09-18T23:53:02.937Z,21.50
2018-09-18T23:55:37.737Z,21.40
2018-09-18T23:58:11.595Z,21.40
